Kendallville, Iowa
Current Conditions -  °F | °C
As of 8:35 PM on Tuesday 21 Oct 2014 (Local Time) from KFKA Reporting Station
Clear Clear  
Wind Chill:   Ceiling: Unl
Heat Index:   Visibility: 10mi
Dew Point:   Wind: 6mph
Humidity: 72%   Direction: 150°SSE
Pressure: 30.2"   Gusts: NA
Location:  43.363°N, 92.1685°W
Report Text: KFKA 220135Z AUTO 15005KT 10SM CLR 07/02 A3020 RMK AO2 T00700023
Loading
Personal Weather Stations






























Interactive Weather Map
Tropical Storm Tracking
New forecast layout! Learn more

10-Day Weather Forecast

Advertisements
Track Severe Weather on mobile